createdAt,value
2023-05-14T00:01:08.444Z,99768.00
2023-05-14T00:02:21.013Z,99766.09
2023-05-14T00:03:27.238Z,99761.81
2023-05-14T00:04:34.386Z,99762.03
2023-05-14T00:05:44.598Z,99765.66
2023-05-14T00:06:49.879Z,99756.81
2023-05-14T00:07:54.330Z,99765.97
2023-05-14T00:08:58.994Z,99758.94
2023-05-14T00:10:03.638Z,99755.66
2023-05-14T00:11:09.175Z,99759.91
2023-05-14T00:12:25.350Z,99756.50
2023-05-14T00:13:36.129Z,99754.78
2023-05-14T00:14:48.192Z,99758.63
2023-05-14T00:15:52.259Z,99761.06
2023-05-14T00:16:56.203Z,99758.31
2023-05-14T00:18:01.112Z,99755.75
2023-05-14T00:19:05.396Z,99756.50
2023-05-14T00:20:12.339Z,99757.56
2023-05-14T00:21:17.419Z,99762.69
2023-05-14T00:22:27.384Z,99754.59
2023-05-14T00:23:31.216Z,99754.59
2023-05-14T00:24:36.037Z,99757.44
2023-05-14T00:25:40.151Z,99758.53
2023-05-14T00:26:43.916Z,99758.63
2023-05-14T00:27:48.010Z,99757.03
2023-05-14T00:28:52.418Z,99762.44
2023-05-14T00:29:56.513Z,99766.09
2023-05-14T00:31:00.774Z,99760.00
2023-05-14T00:32:05.356Z,99764.78
2023-05-14T00:33:12.051Z,99764.78
2023-05-14T00:34:16.307Z,99769.56
2023-05-14T00:35:21.761Z,99770.97
2023-05-14T00:36:26.060Z,99765.44
2023-05-14T00:37:30.065Z,99773.63
2023-05-14T00:38:34.151Z,99772.66
2023-05-14T00:39:38.111Z,99770.00
2023-05-14T00:40:46.031Z,99777.16
2023-05-14T00:41:50.762Z,99773.53
2023-05-14T00:42:56.187Z,99773.53
2023-05-14T00:44:01.061Z,99771.31
2023-05-14T00:45:08.604Z,99768.84
2023-05-14T00:46:14.398Z,99772.56
2023-05-14T00:47:18.598Z,99775.13
2023-05-14T00:48:25.444Z,99770.97
2023-05-14T00:49:32.806Z,99767.66
2023-05-14T00:50:37.661Z,99769.47
2023-05-14T00:51:42.758Z,99765.50
2023-05-14T00:52:47.995Z,99778.09
2023-05-14T00:53:53.646Z,99771.81
2023-05-14T00:54:59.229Z,99773.59
2023-05-14T00:56:04.645Z,99774.75
2023-05-14T00:57:09.322Z,99776.78
2023-05-14T00:58:15.265Z,99776.69
2023-05-14T00:59:19.544Z,99779.44
2023-05-14T01:00:23.757Z,99775.50
2023-05-14T01:01:33.421Z,99777.31
2023-05-14T01:04:19.046Z,99780.88
2023-05-14T01:06:03.156Z,99784.22
2023-05-14T01:08:08.444Z,99781.78
2023-05-14T01:10:08.330Z,99777.03
2023-05-14T01:11:36.107Z,99773.63
2023-05-14T01:12:59.785Z,99778.09
2023-05-14T01:14:21.500Z,99778.72
2023-05-14T01:15:34.760Z,99777.88
2023-05-14T01:16:45.020Z,99780.53
2023-05-14T01:18:09.110Z,99782.25
2023-05-14T01:19:37.948Z,99777.94
2023-05-14T01:20:42.221Z,99781.88
2023-05-14T01:21:46.736Z,99777.41
2023-05-14T01:23:00.384Z,99778.41
2023-05-14T01:24:12.132Z,99773.31
2023-05-14T01:25:31.558Z,99770.56
2023-05-14T01:26:39.266Z,99771.41
2023-05-14T01:28:19.393Z,99761.94
2023-05-14T01:29:33.402Z,99771.78
2023-05-14T01:31:37.622Z,99774.47
2023-05-14T01:32:45.358Z,99766.03
2023-05-14T01:33:51.681Z,99772.00
2023-05-14T01:35:03.814Z,99773.59
2023-05-14T01:36:15.877Z,99778.94
2023-05-14T01:37:27.834Z,99775.31
2023-05-14T01:38:39.836Z,99773.72
2023-05-14T01:39:54.989Z,99772.88
2023-05-14T01:41:28.151Z,99781.78
2023-05-14T01:42:36.536Z,99774.88
2023-05-14T01:43:41.473Z,99771.25
2023-05-14T01:44:45.985Z,99773.06
2023-05-14T01:45:56.848Z,99771.44
2023-05-14T01:47:13.508Z,99777.53
2023-05-14T01:48:30.122Z,99777.72
2023-05-14T01:49:37.732Z,99778.78
2023-05-14T01:50:42.936Z,99771.94
2023-05-14T01:51:46.835Z,99767.59
2023-05-14T01:52:53.594Z,99773.75
2023-05-14T01:54:05.143Z,99766.72
2023-05-14T01:55:12.859Z,99772.16
2023-05-14T01:56:26.841Z,99772.16
2023-05-14T01:57:31.428Z,99768.53
2023-05-14T01:58:35.432Z,99772.16
2023-05-14T01:59:47.037Z,99773.19
2023-05-14T11:12:51.004Z,99376.41
2023-05-14T11:14:13.417Z,99368.78
2023-05-14T11:15:24.752Z,99366.22
2023-05-14T11:16:32.117Z,99369.06
2023-05-14T11:17:43.486Z,99365.97
2023-05-14T11:19:05.714Z,99358.19
2023-05-14T11:20:12.284Z,99345.88
2023-05-14T11:21:19.633Z,99355.16
2023-05-14T11:22:29.772Z,99360.09
2023-05-14T11:23:45.841Z,99365.00
2023-05-14T11:24:51.322Z,99367.72
2023-05-14T11:26:22.963Z,99351.22
2023-05-14T11:27:32.402Z,99359.31
2023-05-14T11:28:37.670Z,99355.41
2023-05-14T11:29:47.420Z,99359.09
2023-05-14T11:30:56.331Z,99358.72
2023-05-14T11:32:02.318Z,99350.97
2023-05-14T11:33:07.553Z,99351.75
2023-05-14T11:34:11.921Z,99364.44
2023-05-14T11:35:16.831Z,99351.81
2023-05-14T11:36:27.904Z,99357.41
2023-05-14T11:37:34.956Z,99355.16
2023-05-14T11:38:52.735Z,99347.75
2023-05-14T11:40:19.725Z,99357.94
2023-05-14T11:41:23.680Z,99341.38
2023-05-14T11:42:28.800Z,99335.72
2023-05-14T11:43:38.601Z,99334.34
2023-05-14T11:44:54.262Z,99350.53
2023-05-14T11:46:06.333Z,99349.88
2023-05-14T11:47:21.776Z,99350.88
2023-05-14T11:48:27.419Z,99344.28
2023-05-14T11:49:37.584Z,99344.91
2023-05-14T11:50:53.586Z,99338.13
2023-05-14T11:52:56.216Z,99346.53
2023-05-14T11:53:41.741Z,99349.44
2023-05-14T11:54:54.782Z,99338.25
2023-05-14T11:56:07.688Z,99335.00
2023-05-14T11:57:21.306Z,99338.25
2023-05-14T11:58:26.138Z,99339.41
2023-05-14T11:59:41.146Z,99339.16
2023-05-14T12:00:48.661Z,99335.06
2023-05-14T12:01:54.967Z,99341.88
2023-05-14T12:03:03.758Z,99317.94
2023-05-14T12:04:07.916Z,99323.69
2023-05-14T12:05:14.987Z,99314.69
2023-05-14T12:06:22.129Z,99314.13
2023-05-14T12:07:30.967Z,99319.38
2023-05-14T12:08:34.658Z,99323.66
2023-05-14T12:09:44.228Z,99318.91
2023-05-14T12:10:49.034Z,99316.19
2023-05-14T12:11:53.336Z,99320.38
2023-05-14T12:12:57.250Z,99322.50
2023-05-14T12:14:01.561Z,99301.22
2023-05-14T12:15:19.258Z,99305.66
2023-05-14T12:16:23.746Z,99299.41
2023-05-14T12:17:34.655Z,99314.44
2023-05-14T12:18:39.108Z,99304.94
2023-05-14T12:19:46.298Z,99301.94
2023-05-14T12:21:06.035Z,99288.03
2023-05-14T12:22:18.470Z,99294.59
2023-05-14T12:23:33.947Z,99282.91
2023-05-14T12:24:39.513Z,99283.25
2023-05-14T12:26:04.367Z,99273.25
2023-05-14T12:27:10.879Z,99284.25
2023-05-14T12:29:49.665Z,99273.91
2023-05-14T12:31:00.737Z,99273.06
2023-05-14T12:32:09.649Z,99267.19
2023-05-14T12:33:14.803Z,99259.78
2023-05-14T12:34:21.310Z,99269.66
2023-05-14T12:35:25.726Z,99265.25
2023-05-14T12:36:31.155Z,99268.53
2023-05-14T12:37:37.433Z,99277.66
2023-05-14T12:38:48.556Z,99266.34
2023-05-14T12:39:57.408Z,99278.56
2023-05-14T12:41:06.706Z,99276.03
2023-05-14T12:42:14.477Z,99275.38
2023-05-14T12:43:24.563Z,99274.06
2023-05-14T12:44:40.048Z,99264.94
2023-05-14T12:45:50.330Z,99265.28
2023-05-14T12:47:11.757Z,99256.97
2023-05-14T12:48:18.725Z,99265.41
2023-05-14T12:49:23.626Z,99260.81
2023-05-14T12:50:40.678Z,99255.19
2023-05-14T12:51:47.759Z,99253.78
2023-05-14T12:53:02.174Z,99254.25
2023-05-14T12:54:13.403Z,99250.88
2023-05-14T12:55:31.999Z,99245.13
2023-05-14T12:56:38.067Z,99246.25
2023-05-14T12:57:42.580Z,99247.75
2023-05-14T12:58:49.187Z,99233.69
2023-05-14T12:59:54.546Z,99237.94
2023-05-14T13:00:58.607Z,99235.59
2023-05-14T13:02:03.226Z,99232.44
2023-05-14T13:03:13.507Z,99244.63
2023-05-14T13:04:23.404Z,99237.00
2023-05-14T13:05:30.579Z,99251.81
2023-05-14T13:06:38.750Z,99259.69
2023-05-14T13:07:44.365Z,99242.72
2023-05-14T13:08:51.042Z,99247.75
2023-05-14T13:10:02.765Z,99252.84
2023-05-14T13:11:06.625Z,99256.06
2023-05-14T13:12:10.654Z,99245.03
2023-05-14T13:13:26.492Z,99254.53
2023-05-14T13:14:30.235Z,99251.81
2023-05-14T13:15:33.941Z,99249.31
2023-05-14T13:16:38.249Z,99235.78
2023-05-14T13:17:42.099Z,99241.84
2023-05-14T13:18:47.560Z,99238.28
2023-05-14T13:19:51.467Z,99237.31
2023-05-14T13:20:55.108Z,99229.19
2023-05-14T13:21:58.696Z,99234.88
2023-05-14T13:23:02.303Z,99229.34
2023-05-14T13:24:07.208Z,99229.34
2023-05-14T13:25:11.374Z,99233.22
2023-05-14T13:26:19.641Z,99231.50
2023-05-14T13:27:32.068Z,99231.69
2023-05-14T13:28:55.852Z,99230.50
2023-05-14T13:30:14.348Z,99219.84
2023-05-14T13:31:23.036Z,99216.97
2023-05-14T13:32:32.084Z,99213.41
2023-05-14T13:33:42.327Z,99216.25
2023-05-14T13:34:55.283Z,99217.53
2023-05-14T13:36:04.054Z,99226.97
2023-05-14T13:37:23.103Z,99218.56
2023-05-14T13:38:39.868Z,99220.16
2023-05-14T13:39:57.664Z,99222.00
2023-05-14T13:41:05.649Z,99225.09
2023-05-14T13:42:14.995Z,99213.78
2023-05-14T13:43:20.318Z,99217.50
2023-05-14T13:44:27.141Z,99215.28
2023-05-14T13:45:36.395Z,99213.06
2023-05-14T13:46:45.316Z,99216.59
2023-05-14T13:48:02.984Z,99215.84
2023-05-14T13:49:14.966Z,99227.63
2023-05-14T13:50:33.352Z,99215.59
2023-05-14T13:52:10.520Z,99187.03
2023-05-14T13:53:30.498Z,99191.16
2023-05-14T13:54:43.385Z,99196.56
2023-05-14T13:56:00.317Z,99190.13
2023-05-14T13:57:24.678Z,99202.16
2023-05-14T13:59:10.950Z,99198.97
2023-05-14T14:00:22.668Z,99198.97
2023-05-14T14:01:33.987Z,99184.13
2023-05-14T14:02:50.109Z,99188.22
2023-05-14T14:04:21.699Z,99175.22
2023-05-14T14:05:37.522Z,99182.88
2023-05-14T14:06:46.633Z,99176.72
2023-05-14T14:08:00.954Z,99172.06
2023-05-14T14:09:40.054Z,99176.31
2023-05-14T14:10:47.428Z,99173.72
2023-05-14T14:11:56.360Z,99170.69
2023-05-14T14:13:03.672Z,99166.63
2023-05-14T14:14:12.039Z,99163.63
2023-05-14T14:15:32.146Z,99166.97
2023-05-14T14:16:37.164Z,99158.22
2023-05-14T14:17:50.420Z,99155.88
2023-05-14T14:18:57.053Z,99160.69
2023-05-14T14:20:19.810Z,99149.22
2023-05-14T14:21:28.692Z,99149.75
2023-05-14T14:24:01.140Z,99148.84
2023-05-14T14:25:15.519Z,99152.59
2023-05-14T14:26:30.430Z,99152.84
2023-05-14T14:27:47.461Z,99149.94
2023-05-14T14:28:58.259Z,99149.00
2023-05-14T14:30:18.000Z,99150.03
2023-05-14T14:31:25.561Z,99151.41
2023-05-14T14:32:41.736Z,99154.63
2023-05-14T14:33:48.242Z,99151.75
2023-05-14T14:35:00.411Z,99146.00
2023-05-14T14:36:06.212Z,99152.59
2023-05-14T14:37:17.262Z,99137.22
2023-05-14T14:38:44.828Z,99143.34
2023-05-14T14:40:03.349Z,99141.97
2023-05-14T14:41:18.556Z,99134.38
2023-05-14T14:42:33.786Z,99139.97
2023-05-14T14:43:41.351Z,99127.31
2023-05-14T14:44:49.431Z,99130.19
2023-05-14T14:45:58.098Z,99133.72
2023-05-14T14:47:07.670Z,99134.94
2023-05-14T14:48:46.698Z,99133.34
2023-05-14T14:49:51.697Z,99134.75
2023-05-14T14:50:58.616Z,99119.38
2023-05-14T14:52:15.115Z,99124.97
2023-05-14T14:53:40.582Z,99117.16
2023-05-14T14:55:04.579Z,99115.13
2023-05-14T14:56:34.884Z,99109.22
2023-05-14T14:57:44.340Z,99107.25
2023-05-14T14:58:54.002Z,99106.97
2023-05-14T15:00:06.973Z,99105.13
2023-05-14T15:01:19.742Z,99103.78
2023-05-14T15:02:25.237Z,99105.44
2023-05-14T15:03:32.884Z,99101.25
2023-05-14T15:04:48.733Z,99098.56
2023-05-14T15:06:08.773Z,99103.13
2023-05-14T15:07:23.984Z,99106.44
2023-05-14T15:08:32.117Z,99098.97
2023-05-14T15:09:38.316Z,99103.84
2023-05-14T15:10:45.075Z,99091.72
2023-05-14T15:11:54.298Z,99099.66
2023-05-14T15:13:01.828Z,99094.38
2023-05-14T15:14:09.273Z,99087.56
2023-05-14T15:15:31.207Z,99088.97
2023-05-14T15:16:43.482Z,99084.09
2023-05-14T15:17:55.301Z,99088.47
2023-05-14T15:19:02.921Z,99089.81
2023-05-14T15:21:43.931Z,99085.25
2023-05-14T15:24:53.051Z,99083.06
2023-05-14T15:25:57.003Z,99084.63
2023-05-14T15:27:02.093Z,99093.94
2023-05-14T15:28:11.168Z,99077.94
2023-05-14T15:29:18.674Z,99083.78
2023-05-14T15:30:36.136Z,99086.38
2023-05-14T15:31:42.953Z,99083.84
2023-05-14T15:32:50.711Z,99089.75
2023-05-14T15:34:03.762Z,99088.25
2023-05-14T15:35:11.069Z,99090.41
2023-05-14T15:36:15.269Z,99082.84
2023-05-14T15:37:19.334Z,99085.53
2023-05-14T15:38:23.036Z,99084.69
2023-05-14T15:39:28.417Z,99089.13
2023-05-14T15:40:35.120Z,99091.66
2023-05-14T15:41:39.155Z,99080.84
2023-05-14T15:42:44.560Z,99082.72
2023-05-14T15:43:51.188Z,99077.69
2023-05-14T15:44:55.849Z,99074.81
2023-05-14T15:45:59.900Z,99078.16
2023-05-14T15:47:03.679Z,99083.22
2023-05-14T15:48:11.808Z,99080.00
2023-05-14T15:49:22.708Z,99087.09
2023-05-14T15:50:33.173Z,99073.31
2023-05-14T15:51:47.744Z,99072.81
2023-05-14T15:52:55.835Z,99073.19
2023-05-14T15:54:03.048Z,99068.50
2023-05-14T15:55:12.126Z,99074.56
2023-05-14T15:56:27.521Z,99067.97
2023-05-14T15:57:40.670Z,99066.63
2023-05-14T15:59:07.056Z,99074.09
2023-05-14T16:00:22.329Z,99064.13
2023-05-14T16:01:39.867Z,99059.56
2023-05-14T16:02:46.140Z,99057.50
2023-05-14T16:04:03.273Z,99055.38
2023-05-14T16:05:17.032Z,99054.16
2023-05-14T16:06:41.769Z,99045.75
2023-05-14T16:07:55.741Z,99043.88
2023-05-14T16:09:01.790Z,99046.59
2023-05-14T16:10:06.981Z,99046.97
2023-05-14T16:11:11.021Z,99039.88
2023-05-14T16:12:18.048Z,99048.63
2023-05-14T16:13:22.495Z,99045.09
2023-05-14T16:14:26.743Z,99039.19
2023-05-14T16:15:30.774Z,99038.50
2023-05-14T16:16:34.482Z,99035.50
2023-05-14T16:17:39.103Z,99034.13
2023-05-14T16:18:43.603Z,99032.06
2023-05-14T16:19:47.805Z,99039.16
2023-05-14T16:20:52.256Z,99035.44
2023-05-14T16:21:59.526Z,99029.03
2023-05-14T16:23:03.385Z,99030.38
2023-05-14T16:24:08.213Z,99033.47
2023-05-14T16:25:15.638Z,99035.31
2023-05-14T16:26:21.069Z,99036.50
2023-05-14T16:27:26.286Z,99036.00
2023-05-14T16:28:31.225Z,99041.06
2023-05-14T16:29:35.218Z,99040.72
2023-05-14T16:30:39.632Z,99034.81
2023-05-14T16:31:44.357Z,99027.56
2023-05-14T16:32:49.689Z,99033.13
2023-05-14T16:33:56.583Z,99027.41
2023-05-14T16:35:02.768Z,99030.09
2023-05-14T16:36:14.542Z,99032.66
2023-05-14T16:37:20.573Z,99029.13
2023-05-14T16:38:24.765Z,99027.25
2023-05-14T16:39:28.991Z,99027.25
2023-05-14T16:40:33.055Z,99027.59
2023-05-14T16:41:36.886Z,99026.41
2023-05-14T16:42:40.836Z,99022.19
2023-05-14T16:43:45.657Z,99022.06
2023-05-14T16:44:50.047Z,99024.94
2023-05-14T16:45:56.658Z,99019.09
2023-05-14T16:47:01.155Z,99017.38
2023-05-14T16:48:05.516Z,99011.63
2023-05-14T16:49:09.511Z,99018.25
2023-05-14T16:50:13.841Z,99021.94
2023-05-14T16:51:18.154Z,99019.41
2023-05-14T16:52:22.240Z,99017.75
2023-05-14T16:53:26.722Z,99016.72
2023-05-14T16:54:31.166Z,99020.44
2023-05-14T16:55:35.184Z,99021.09
2023-05-14T16:56:39.581Z,99016.06
2023-05-14T16:57:43.867Z,99018.97
2023-05-14T16:58:49.654Z,99016.06
2023-05-14T16:59:54.108Z,99017.94
2023-05-14T17:00:58.104Z,99015.41
2023-05-14T17:02:01.958Z,99021.81
2023-05-14T17:03:07.805Z,99014.91
2023-05-14T17:04:12.530Z,99016.59
2023-05-14T17:05:17.108Z,99020.97
2023-05-14T17:06:22.158Z,99014.09
2023-05-14T17:07:26.259Z,99013.44
2023-05-14T17:08:33.656Z,99015.44
2023-05-14T17:09:37.965Z,99009.38
2023-05-14T17:10:41.801Z,99012.28
2023-05-14T17:11:45.993Z,99005.03
2023-05-14T17:12:50.008Z,98996.91
2023-05-14T17:13:54.594Z,99005.38
2023-05-14T17:15:04.495Z,99002.50
2023-05-14T17:16:09.588Z,99001.66
2023-05-14T17:17:13.302Z,98998.97
2023-05-14T17:18:17.859Z,99001.53
2023-05-14T17:19:21.987Z,99004.41
2023-05-14T17:20:25.822Z,98996.97
2023-05-14T17:21:29.572Z,98988.88
2023-05-14T17:22:33.212Z,98990.56
2023-05-14T17:23:37.144Z,98988.88
2023-05-14T17:24:43.457Z,98989.06
2023-05-14T17:25:47.286Z,98982.66
2023-05-14T17:26:51.051Z,98986.84
2023-05-14T17:27:54.685Z,98982.66
2023-05-14T17:28:59.228Z,98982.84
2023-05-14T17:30:05.183Z,98979.13
2023-05-14T17:31:09.683Z,98976.75
2023-05-14T17:32:13.615Z,98983.16
2023-05-14T17:33:18.213Z,98980.66
2023-05-14T17:34:22.215Z,98977.78
2023-05-14T17:35:26.626Z,98976.94
2023-05-14T17:36:32.119Z,98969.69
2023-05-14T17:37:37.057Z,98966.16
2023-05-14T17:38:41.969Z,98966.34
2023-05-14T17:39:46.056Z,98975.25
2023-05-14T17:40:50.046Z,98972.75
2023-05-14T17:41:54.054Z,98979.16
2023-05-14T17:42:59.531Z,98983.72
2023-05-14T17:44:03.179Z,98980.34
2023-05-14T17:45:09.027Z,98985.25
2023-05-14T17:46:15.730Z,98978.19
2023-05-14T17:47:20.837Z,98981.91
2023-05-14T17:48:25.475Z,98987.50
2023-05-14T17:49:29.332Z,98989.53
2023-05-14T17:50:33.191Z,98990.41
2023-05-14T17:51:37.305Z,98980.81
2023-05-14T17:52:44.487Z,98977.41
2023-05-14T17:53:48.451Z,98967.00
2023-05-14T17:54:52.716Z,98964.81
2023-05-14T17:56:00.045Z,98961.66
2023-05-14T17:57:04.687Z,98962.66
2023-05-14T17:58:08.927Z,98962.16
2023-05-14T17:59:24.712Z,98967.91
2023-05-14T18:00:28.543Z,98961.50
2023-05-14T18:01:32.556Z,98962.84
2023-05-14T18:02:40.675Z,98957.81
2023-05-14T18:03:44.918Z,98954.09
2023-05-14T18:04:48.623Z,98958.66
2023-05-14T18:05:52.810Z,98959.34
2023-05-14T18:06:58.449Z,98963.91
2023-05-14T18:08:02.633Z,98970.16
2023-05-14T18:09:06.315Z,98971.16
2023-05-14T18:10:10.574Z,98971.50
2023-05-14T18:11:14.470Z,98973.03
2023-05-14T18:12:19.052Z,98973.19
2023-05-14T18:13:23.275Z,98975.59
2023-05-14T18:14:27.195Z,98969.84
2023-05-14T18:15:31.679Z,98978.97
2023-05-14T18:16:41.936Z,98975.75
2023-05-14T18:17:49.813Z,98984.38
2023-05-14T18:18:53.940Z,98995.13
2023-05-14T18:19:59.125Z,99000.34
2023-05-14T18:21:03.261Z,99000.47
2023-05-14T18:22:07.475Z,99007.56
2023-05-14T18:23:11.894Z,99006.03
2023-05-14T18:24:16.575Z,99008.41
2023-05-14T18:25:21.404Z,99009.28
2023-05-14T18:26:27.700Z,99006.19
2023-05-14T18:27:34.509Z,99009.91
2023-05-14T18:28:38.813Z,99017.47
2023-05-14T18:29:45.487Z,99013.63
2023-05-14T18:30:49.971Z,99014.28
2023-05-14T18:31:54.027Z,99018.13
2023-05-14T18:33:02.440Z,99014.28
2023-05-14T18:34:07.053Z,99012.25
2023-05-14T18:35:12.927Z,99013.75
2023-05-14T18:36:18.779Z,99012.38
2023-05-14T18:37:23.027Z,99018.94
2023-05-14T18:38:28.062Z,99016.41
2023-05-14T18:39:33.565Z,99021.81
2023-05-14T18:40:38.274Z,99028.19
2023-05-14T18:41:47.139Z,99024.31
2023-05-14T18:42:51.702Z,99028.31
2023-05-14T18:44:07.838Z,99028.00
2023-05-14T18:45:12.330Z,99025.63
2023-05-14T18:46:16.478Z,99028.84
2023-05-14T18:47:20.840Z,99028.84
2023-05-14T18:48:25.998Z,99040.91
2023-05-14T18:49:30.258Z,99035.69
2023-05-14T18:50:40.811Z,99027.13
2023-05-14T18:51:44.978Z,99016.31
2023-05-14T18:52:49.246Z,99017.00
2023-05-14T18:53:53.232Z,99015.75
2023-05-14T18:54:57.360Z,99015.56
2023-05-14T18:56:01.179Z,99012.72
2023-05-14T18:57:05.511Z,99010.88
2023-05-14T18:58:09.826Z,99012.22
2023-05-14T18:59:13.555Z,99006.84
2023-05-14T19:00:20.072Z,99009.53
2023-05-14T19:01:25.977Z,98996.41
2023-05-14T19:02:30.110Z,99006.16
2023-05-14T19:03:34.833Z,99007.16
2023-05-14T19:04:51.240Z,99007.53
2023-05-14T19:05:56.871Z,99006.69
2023-05-14T19:07:01.026Z,99006.56
2023-05-14T19:08:05.474Z,99002.88
2023-05-14T19:09:10.982Z,99007.22
2023-05-14T19:10:15.238Z,99003.16
2023-05-14T19:11:19.301Z,99001.50
2023-05-14T19:12:26.884Z,99000.47
2023-05-14T19:13:30.785Z,99003.47
2023-05-14T19:14:34.600Z,99008.34
2023-05-14T19:15:38.945Z,99019.28
2023-05-14T19:16:42.940Z,99012.88
2023-05-14T19:17:46.800Z,99011.50
2023-05-14T19:18:50.880Z,99014.19
2023-05-14T19:19:54.860Z,99016.03
2023-05-14T19:20:59.117Z,99015.75
2023-05-14T19:22:02.855Z,99008.81
2023-05-14T19:23:06.549Z,99021.13
2023-05-14T19:24:10.268Z,99017.41
2023-05-14T19:25:14.602Z,99016.88
2023-05-14T19:26:23.425Z,99014.38
2023-05-14T19:27:28.942Z,99018.91
2023-05-14T19:28:33.922Z,99022.59
2023-05-14T19:29:39.012Z,99030.81
2023-05-14T19:30:43.559Z,99030.13
2023-05-14T19:31:47.941Z,99040.88
2023-05-14T19:32:52.443Z,99032.59
2023-05-14T19:33:56.900Z,99037.97
2023-05-14T19:35:03.089Z,99036.31
2023-05-14T19:36:08.066Z,99037.97
2023-05-14T19:37:12.385Z,99024.50
2023-05-14T19:38:16.478Z,99036.31
2023-05-14T19:39:21.181Z,99043.34
2023-05-14T19:40:25.253Z,99039.16
2023-05-14T19:41:30.573Z,99044.03
2023-05-14T19:42:34.720Z,99043.19
2023-05-14T19:43:39.487Z,99038.94
2023-05-14T19:44:44.226Z,99042.66
2023-05-14T19:45:48.711Z,99045.31
2023-05-14T19:46:53.062Z,99042.66
2023-05-14T19:47:59.933Z,99043.19
2023-05-14T19:49:04.059Z,99041.47
2023-05-14T19:50:09.500Z,99043.19
2023-05-14T19:51:13.645Z,99037.66
2023-05-14T19:52:17.546Z,99038.66
2023-05-14T19:53:22.437Z,99038.94
2023-05-14T19:54:26.890Z,99040.97
2023-05-14T19:55:31.056Z,99040.63
2023-05-14T19:56:35.596Z,99037.06
2023-05-14T19:57:40.596Z,99042.44
2023-05-14T19:58:46.011Z,99038.25
2023-05-14T19:59:53.853Z,99036.56
2023-05-14T20:00:59.075Z,99041.94
2023-05-14T20:02:04.761Z,99035.34
2023-05-14T20:03:10.344Z,99036.50
2023-05-14T20:04:16.707Z,99038.50
2023-05-14T20:05:21.533Z,99035.50
2023-05-14T20:06:26.120Z,99036.34
2023-05-14T20:07:30.403Z,99028.13
2023-05-14T20:08:34.601Z,99025.41
2023-05-14T20:09:38.867Z,99028.38
2023-05-14T20:10:45.737Z,99025.84
2023-05-14T20:11:49.684Z,99019.97
